sensor_id;sensor_type;location;lat;lon;timestamp;P1;durP1;ratioP1;P2;durP2;ratioP2
78985;SDS011;68384;55.750;48.746;2023-07-20T00:00:26;4.60;;;3.80;;
78985;SDS011;68384;55.750;48.746;2023-07-20T00:01:28;7.25;;;4.93;;
78985;SDS011;68384;55.750;48.746;2023-07-20T00:02:32;6.53;;;5.15;;
78985;SDS011;68384;55.750;48.746;2023-07-20T00:03:36;8.40;;;6.10;;
78985;SDS011;68384;55.750;48.746;2023-07-20T00:04:39;7.35;;;5.53;;
78985;SDS011;68384;55.750;48.746;2023-07-20T00:05:42;5.60;;;3.42;;
78985;SDS011;68384;55.750;48.746;2023-07-20T00:06:45;4.45;;;3.38;;
78985;SDS011;68384;55.750;48.746;2023-07-20T00:07:49;3.67;;;3.10;;
78985;SDS011;68384;55.750;48.746;2023-07-20T00:08:54;4.35;;;2.53;;
78985;SDS011;68384;55.750;48.746;2023-07-20T00:09:58;5.03;;;2.55;;
78985;SDS011;68384;55.750;48.746;2023-07-20T00:11:02;3.88;;;3.03;;
78985;SDS011;68384;55.750;48.746;2023-07-20T00:12:06;3.70;;;2.90;;
78985;SDS011;68384;55.750;48.746;2023-07-20T00:13:10;5.63;;;3.00;;
78985;SDS011;68384;55.750;48.746;2023-07-20T00:14:15;3.33;;;2.78;;
78985;SDS011;68384;55.750;48.746;2023-07-20T00:15:17;4.25;;;2.95;;
78985;SDS011;68384;55.750;48.746;2023-07-20T00:16:21;3.92;;;2.60;;
78985;SDS011;68384;55.750;48.746;2023-07-20T00:17:24;3.58;;;2.75;;
78985;SDS011;68384;55.750;48.746;2023-07-20T00:18:28;3.33;;;2.78;;
78985;SDS011;68384;55.750;48.746;2023-07-20T00:19:31;4.43;;;3.10;;
78985;SDS011;68384;55.750;48.746;2023-07-20T00:20:35;4.47;;;2.83;;
78985;SDS011;68384;55.750;48.746;2023-07-20T00:21:39;5.60;;;2.88;;
78985;SDS011;68384;55.750;48.746;2023-07-20T00:22:44;3.95;;;2.70;;
78985;SDS011;68384;55.750;48.746;2023-07-20T00:23:47;3.53;;;3.10;;
78985;SDS011;68384;55.750;48.746;2023-07-20T00:24:51;4.13;;;3.38;;
78985;SDS011;68384;55.750;48.746;2023-07-20T00:25:55;4.43;;;3.00;;
78985;SDS011;68384;55.750;48.746;2023-07-20T00:27:00;6.75;;;2.90;;
78985;SDS011;68384;55.750;48.746;2023-07-20T00:28:04;3.47;;;2.83;;
78985;SDS011;68384;55.750;48.746;2023-07-20T00:29:09;5.25;;;2.95;;
78985;SDS011;68384;55.750;48.746;2023-07-20T00:30:12;5.78;;;2.88;;
78985;SDS011;68384;55.750;48.746;2023-07-20T00:31:18;5.22;;;3.05;;
78985;SDS011;68384;55.750;48.746;2023-07-20T00:32:20;4.03;;;3.00;;
78985;SDS011;68384;55.750;48.746;2023-07-20T00:33:25;4.00;;;3.25;;
78985;SDS011;68384;55.750;48.746;2023-07-20T00:34:27;3.90;;;2.70;;
78985;SDS011;68384;55.750;48.746;2023-07-20T00:35:31;8.27;;;3.13;;
78985;SDS011;68384;55.750;48.746;2023-07-20T00:36:35;7.25;;;3.10;;
78985;SDS011;68384;55.750;48.746;2023-07-20T00:37:39;3.67;;;2.70;;
78985;SDS011;68384;55.750;48.746;2023-07-20T00:38:42;3.70;;;2.88;;
78985;SDS011;68384;55.750;48.746;2023-07-20T00:39:46;4.47;;;3.10;;
78985;SDS011;68384;55.750;48.746;2023-07-20T00:40:49;3.35;;;2.75;;
78985;SDS011;68384;55.750;48.746;2023-07-20T00:41:53;4.85;;;2.90;;
78985;SDS011;68384;55.750;48.746;2023-07-20T00:42:57;3.63;;;3.10;;
78985;SDS011;68384;55.750;48.746;2023-07-20T00:44:01;5.57;;;2.88;;
78985;SDS011;68384;55.750;48.746;2023-07-20T00:45:04;4.22;;;3.35;;
78985;SDS011;68384;55.750;48.746;2023-07-20T00:46:09;5.68;;;3.22;;
78985;SDS011;68384;55.750;48.746;2023-07-20T00:47:13;3.45;;;2.70;;
78985;SDS011;68384;55.750;48.746;2023-07-20T00:48:17;2.85;;;2.50;;
78985;SDS011;68384;55.750;48.746;2023-07-20T00:49:20;3.65;;;3.13;;
78985;SDS011;68384;55.750;48.746;2023-07-20T00:50:26;6.65;;;3.30;;
78985;SDS011;68384;55.750;48.746;2023-07-20T00:51:30;5.80;;;2.90;;
78985;SDS011;68384;55.750;48.746;2023-07-20T00:52:33;7.30;;;3.40;;
78985;SDS011;68384;55.750;48.746;2023-07-20T00:53:37;3.67;;;3.00;;
78985;SDS011;68384;55.750;48.746;2023-07-20T00:54:41;4.50;;;3.53;;
78985;SDS011;68384;55.750;48.746;2023-07-20T00:55:44;4.40;;;3.30;;
78985;SDS011;68384;55.750;48.746;2023-07-20T00:56:47;3.60;;;2.72;;
78985;SDS011;68384;55.750;48.746;2023-07-20T00:57:52;4.60;;;2.72;;
78985;SDS011;68384;55.750;48.746;2023-07-20T00:58:56;5.13;;;3.20;;
78985;SDS011;68384;55.750;48.746;2023-07-20T01:00:02;4.03;;;3.00;;
78985;SDS011;68384;55.750;48.746;2023-07-20T01:01:06;4.55;;;3.03;;
78985;SDS011;68384;55.750;48.746;2023-07-20T01:02:10;4.70;;;3.35;;
78985;SDS011;68384;55.750;48.746;2023-07-20T01:03:15;4.95;;;3.20;;
78985;SDS011;68384;55.750;48.746;2023-07-20T01:04:19;5.13;;;3.53;;
78985;SDS011;68384;55.750;48.746;2023-07-20T01:05:24;6.32;;;3.45;;
78985;SDS011;68384;55.750;48.746;2023-07-20T01:08:21;3.75;;;3.25;;
78985;SDS011;68384;55.750;48.746;2023-07-20T01:09:31;3.97;;;2.95;;
78985;SDS011;68384;55.750;48.746;2023-07-20T01:10:43;4.20;;;3.08;;
78985;SDS011;68384;55.750;48.746;2023-07-20T01:11:54;6.68;;;3.42;;
78985;SDS011;68384;55.750;48.746;2023-07-20T01:13:07;4.07;;;2.97;;
78985;SDS011;68384;55.750;48.746;2023-07-20T01:14:15;6.15;;;3.05;;
78985;SDS011;68384;55.750;48.746;2023-07-20T01:15:19;5.43;;;2.95;;
78985;SDS011;68384;55.750;48.746;2023-07-20T01:16:23;4.90;;;3.13;;
78985;SDS011;68384;55.750;48.746;2023-07-20T01:17:27;4.63;;;2.95;;
78985;SDS011;68384;55.750;48.746;2023-07-20T01:18:31;5.63;;;2.90;;
78985;SDS011;68384;55.750;48.746;2023-07-20T01:19:33;4.03;;;3.22;;
78985;SDS011;68384;55.750;48.746;2023-07-20T01:20:37;5.72;;;2.90;;
78985;SDS011;68384;55.750;48.746;2023-07-20T01:21:42;3.97;;;3.10;;
78985;SDS011;68384;55.750;48.746;2023-07-20T01:23:00;6.15;;;3.20;;
78985;SDS011;68384;55.750;48.746;2023-07-20T01:25:35;3.30;;;2.60;;
78985;SDS011;68384;55.750;48.746;2023-07-20T01:28:36;4.53;;;3.45;;
78985;SDS011;68384;55.750;48.746;2023-07-20T01:29:59;3.10;;;2.50;;
78985;SDS011;68384;55.750;48.746;2023-07-20T01:31:16;3.47;;;3.03;;
78985;SDS011;68384;55.750;48.746;2023-07-20T01:32:23;5.82;;;2.90;;
78985;SDS011;68384;55.750;48.746;2023-07-20T01:33:28;3.75;;;2.40;;
78985;SDS011;68384;55.750;48.746;2023-07-20T01:34:34;4.55;;;3.13;;
78985;SDS011;68384;55.750;48.746;2023-07-20T01:35:52;5.45;;;3.10;;
78985;SDS011;68384;55.750;48.746;2023-07-20T01:36:58;4.72;;;3.25;;
78985;SDS011;68384;55.750;48.746;2023-07-20T01:38:04;3.45;;;3.05;;
78985;SDS011;68384;55.750;48.746;2023-07-20T01:39:08;4.28;;;2.95;;
78985;SDS011;68384;55.750;48.746;2023-07-20T01:40:12;4.30;;;2.90;;
78985;SDS011;68384;55.750;48.746;2023-07-20T01:41:17;3.33;;;2.58;;
78985;SDS011;68384;55.750;48.746;2023-07-20T01:42:21;3.70;;;2.45;;
78985;SDS011;68384;55.750;48.746;2023-07-20T01:43:25;3.20;;;2.65;;
78985;SDS011;68384;55.750;48.746;2023-07-20T01:44:29;3.50;;;2.63;;
78985;SDS011;68384;55.750;48.746;2023-07-20T01:45:31;3.47;;;2.53;;
78985;SDS011;68384;55.750;48.746;2023-07-20T01:46:37;4.07;;;2.63;;
78985;SDS011;68384;55.750;48.746;2023-07-20T01:47:40;5.35;;;3.10;;
78985;SDS011;68384;55.750;48.746;2023-07-20T01:48:44;4.63;;;2.85;;
78985;SDS011;68384;55.750;48.746;2023-07-20T01:49:48;5.10;;;2.60;;
78985;SDS011;68384;55.750;48.746;2023-07-20T01:50:50;3.97;;;2.80;;
78985;SDS011;68384;55.750;48.746;2023-07-20T01:51:55;3.63;;;3.20;;
78985;SDS011;68384;55.750;48.746;2023-07-20T01:52:58;4.35;;;2.67;;
78985;SDS011;68384;55.750;48.746;2023-07-20T01:54:02;3.97;;;2.95;;
78985;SDS011;68384;55.750;48.746;2023-07-20T01:55:05;3.83;;;2.50;;
78985;SDS011;68384;55.750;48.746;2023-07-20T01:56:09;3.45;;;2.78;;
78985;SDS011;68384;55.750;48.746;2023-07-20T01:57:14;3.90;;;3.33;;
78985;SDS011;68384;55.750;48.746;2023-07-20T01:58:17;5.00;;;2.58;;
78985;SDS011;68384;55.750;48.746;2023-07-20T01:59:21;3.67;;;3.10;;
78985;SDS011;68384;55.750;48.746;2023-07-20T02:00:24;4.43;;;2.90;;
78985;SDS011;68384;55.750;48.746;2023-07-20T02:01:28;4.13;;;3.00;;
78985;SDS011;68384;55.750;48.746;2023-07-20T02:02:32;3.25;;;2.80;;
78985;SDS011;68384;55.750;48.746;2023-07-20T02:03:36;3.10;;;2.53;;
78985;SDS011;68384;55.750;48.746;2023-07-20T02:04:39;6.40;;;2.55;;
78985;SDS011;68384;55.750;48.746;2023-07-20T02:05:43;3.38;;;2.22;;
78985;SDS011;68384;55.750;48.746;2023-07-20T02:06:46;5.40;;;2.40;;
78985;SDS011;68384;55.750;48.746;2023-07-20T02:07:50;5.57;;;3.08;;
78985;SDS011;68384;55.750;48.746;2023-07-20T02:08:54;4.63;;;2.85;;
78985;SDS011;68384;55.750;48.746;2023-07-20T02:09:58;5.53;;;3.08;;
78985;SDS011;68384;55.750;48.746;2023-07-20T02:11:01;4.38;;;3.15;;
78985;SDS011;68384;55.750;48.746;2023-07-20T02:12:06;3.60;;;2.83;;
78985;SDS011;68384;55.750;48.746;2023-07-20T02:13:10;4.90;;;3.42;;
78985;SDS011;68384;55.750;48.746;2023-07-20T02:14:14;4.25;;;2.97;;
78985;SDS011;68384;55.750;48.746;2023-07-20T02:15:17;11.50;;;3.42;;
78985;SDS011;68384;55.750;48.746;2023-07-20T02:16:21;6.53;;;3.08;;
78985;SDS011;68384;55.750;48.746;2023-07-20T02:17:24;3.83;;;2.50;;
78985;SDS011;68384;55.750;48.746;2023-07-20T02:18:30;4.00;;;2.78;;
78985;SDS011;68384;55.750;48.746;2023-07-20T02:19:33;4.90;;;2.85;;
78985;SDS011;68384;55.750;48.746;2023-07-20T02:20:37;3.60;;;3.08;;
78985;SDS011;68384;55.750;48.746;2023-07-20T02:21:39;5.53;;;3.05;;
78985;SDS011;68384;55.750;48.746;2023-07-20T02:22:43;4.10;;;3.00;;
78985;SDS011;68384;55.750;48.746;2023-07-20T02:23:46;4.82;;;3.10;;
78985;SDS011;68384;55.750;48.746;2023-07-20T02:24:50;4.38;;;2.70;;
78985;SDS011;68384;55.750;48.746;2023-07-20T02:25:53;5.30;;;2.70;;
78985;SDS011;68384;55.750;48.746;2023-07-20T02:26:57;4.35;;;2.97;;
78985;SDS011;68384;55.750;48.746;2023-07-20T02:28:00;3.88;;;2.63;;
78985;SDS011;68384;55.750;48.746;2023-07-20T02:29:03;7.75;;;2.85;;
78985;SDS011;68384;55.750;48.746;2023-07-20T02:30:07;4.88;;;3.00;;
78985;SDS011;68384;55.750;48.746;2023-07-20T02:31:12;5.25;;;2.97;;
78985;SDS011;68384;55.750;48.746;2023-07-20T02:32:15;3.88;;;3.05;;
78985;SDS011;68384;55.750;48.746;2023-07-20T02:33:19;7.97;;;3.05;;
78985;SDS011;68384;55.750;48.746;2023-07-20T02:34:24;4.50;;;2.80;;
78985;SDS011;68384;55.750;48.746;2023-07-20T02:35:28;4.53;;;2.80;;
78985;SDS011;68384;55.750;48.746;2023-07-20T02:36:31;4.43;;;2.90;;
78985;SDS011;68384;55.750;48.746;2023-07-20T02:37:35;9.40;;;3.40;;
78985;SDS011;68384;55.750;48.746;2023-07-20T02:38:39;4.03;;;2.95;;
78985;SDS011;68384;55.750;48.746;2023-07-20T02:39:42;3.42;;;2.40;;
78985;SDS011;68384;55.750;48.746;2023-07-20T02:40:46;6.90;;;2.80;;
78985;SDS011;68384;55.750;48.746;2023-07-20T02:41:50;4.45;;;2.70;;
78985;SDS011;68384;55.750;48.746;2023-07-20T02:42:52;3.15;;;2.53;;
78985;SDS011;68384;55.750;48.746;2023-07-20T02:43:56;3.83;;;2.50;;
78985;SDS011;68384;55.750;48.746;2023-07-20T02:44:59;5.32;;;2.40;;
78985;SDS011;68384;55.750;48.746;2023-07-20T02:46:03;7.90;;;2.63;;
78985;SDS011;68384;55.750;48.746;2023-07-20T02:47:07;6.60;;;2.65;;
78985;SDS011;68384;55.750;48.746;2023-07-20T02:48:11;6.65;;;2.72;;
78985;SDS011;68384;55.750;48.746;2023-07-20T02:49:15;5.30;;;2.97;;
78985;SDS011;68384;55.750;48.746;2023-07-20T02:50:20;8.35;;;2.90;;
78985;SDS011;68384;55.750;48.746;2023-07-20T02:51:23;5.03;;;2.70;;
78985;SDS011;68384;55.750;48.746;2023-07-20T02:52:27;5.07;;;2.70;;
78985;SDS011;68384;55.750;48.746;2023-07-20T02:53:32;4.82;;;2.65;;
78985;SDS011;68384;55.750;48.746;2023-07-20T02:54:35;7.57;;;3.03;;
78985;SDS011;68384;55.750;48.746;2023-07-20T02:55:38;6.25;;;2.83;;
78985;SDS011;68384;55.750;48.746;2023-07-20T02:56:42;7.45;;;2.60;;
78985;SDS011;68384;55.750;48.746;2023-07-20T02:57:45;4.53;;;2.95;;
78985;SDS011;68384;55.750;48.746;2023-07-20T02:58:49;6.75;;;2.88;;
78985;SDS011;68384;55.750;48.746;2023-07-20T02:59:52;4.75;;;2.90;;
78985;SDS011;68384;55.750;48.746;2023-07-20T03:00:57;4.75;;;2.70;;
78985;SDS011;68384;55.750;48.746;2023-07-20T03:02:00;4.65;;;2.20;;
78985;SDS011;68384;55.750;48.746;2023-07-20T03:03:03;4.78;;;3.42;;
78985;SDS011;68384;55.750;48.746;2023-07-20T03:04:11;3.75;;;2.83;;
78985;SDS011;68384;55.750;48.746;2023-07-20T03:05:15;5.45;;;2.80;;
78985;SDS011;68384;55.750;48.746;2023-07-20T03:06:20;3.50;;;2.25;;
78985;SDS011;68384;55.750;48.746;2023-07-20T03:07:24;7.70;;;2.67;;
78985;SDS011;68384;55.750;48.746;2023-07-20T03:08:29;6.55;;;2.80;;
78985;SDS011;68384;55.750;48.746;2023-07-20T03:09:33;15.05;;;3.17;;
78985;SDS011;68384;55.750;48.746;2023-07-20T03:10:38;3.38;;;2.25;;
78985;SDS011;68384;55.750;48.746;2023-07-20T03:11:43;6.50;;;3.33;;
78985;SDS011;68384;55.750;48.746;2023-07-20T03:12:46;3.95;;;2.50;;
78985;SDS011;68384;55.750;48.746;2023-07-20T03:13:50;5.40;;;2.70;;
78985;SDS011;68384;55.750;48.746;2023-07-20T03:14:53;3.78;;;2.90;;
78985;SDS011;68384;55.750;48.746;2023-07-20T03:16:00;4.55;;;2.42;;
78985;SDS011;68384;55.750;48.746;2023-07-20T03:17:03;4.05;;;3.28;;
78985;SDS011;68384;55.750;48.746;2023-07-20T03:18:07;8.48;;;3.28;;
78985;SDS011;68384;55.750;48.746;2023-07-20T03:19:10;4.18;;;2.80;;
78985;SDS011;68384;55.750;48.746;2023-07-20T03:20:15;6.45;;;2.95;;
78985;SDS011;68384;55.750;48.746;2023-07-20T03:21:20;3.47;;;2.20;;
78985;SDS011;68384;55.750;48.746;2023-07-20T03:22:24;4.80;;;2.83;;
78985;SDS011;68384;55.750;48.746;2023-07-20T03:23:26;5.00;;;2.70;;
78985;SDS011;68384;55.750;48.746;2023-07-20T03:24:30;4.00;;;2.75;;
78985;SDS011;68384;55.750;48.746;2023-07-20T03:25:33;7.03;;;2.90;;
78985;SDS011;68384;55.750;48.746;2023-07-20T03:26:39;6.35;;;2.55;;
78985;SDS011;68384;55.750;48.746;2023-07-20T03:27:42;6.43;;;2.35;;
78985;SDS011;68384;55.750;48.746;2023-07-20T03:28:45;4.55;;;2.30;;
78985;SDS011;68384;55.750;48.746;2023-07-20T03:29:49;5.38;;;2.97;;
78985;SDS011;68384;55.750;48.746;2023-07-20T03:30:55;4.18;;;2.80;;
78985;SDS011;68384;55.750;48.746;2023-07-20T03:32:01;5.70;;;2.75;;
78985;SDS011;68384;55.750;48.746;2023-07-20T03:33:03;3.63;;;2.40;;
78985;SDS011;68384;55.750;48.746;2023-07-20T03:34:08;4.72;;;2.28;;
78985;SDS011;68384;55.750;48.746;2023-07-20T03:35:11;7.30;;;2.42;;
78985;SDS011;68384;55.750;48.746;2023-07-20T03:36:15;8.93;;;2.53;;
78985;SDS011;68384;55.750;48.746;2023-07-20T03:37:20;3.22;;;2.40;;
78985;SDS011;68384;55.750;48.746;2023-07-20T03:38:23;6.90;;;2.35;;
78985;SDS011;68384;55.750;48.746;2023-07-20T03:39:28;5.28;;;2.65;;
78985;SDS011;68384;55.750;48.746;2023-07-20T03:40:31;5.53;;;2.35;;
78985;SDS011;68384;55.750;48.746;2023-07-20T03:41:35;3.60;;;2.30;;
78985;SDS011;68384;55.750;48.746;2023-07-20T03:42:39;5.95;;;3.05;;
78985;SDS011;68384;55.750;48.746;2023-07-20T03:43:43;4.95;;;2.42;;
78985;SDS011;68384;55.750;48.746;2023-07-20T03:44:46;6.68;;;2.58;;
78985;SDS011;68384;55.750;48.746;2023-07-20T03:45:50;4.15;;;2.50;;
78985;SDS011;68384;55.750;48.746;2023-07-20T03:46:53;4.68;;;2.60;;
78985;SDS011;68384;55.750;48.746;2023-07-20T03:47:57;4.53;;;2.38;;
78985;SDS011;68384;55.750;48.746;2023-07-20T03:49:00;3.50;;;2.38;;
78985;SDS011;68384;55.750;48.746;2023-07-20T03:50:06;5.82;;;2.35;;
78985;SDS011;68384;55.750;48.746;2023-07-20T03:51:12;5.05;;;3.03;;
78985;SDS011;68384;55.750;48.746;2023-07-20T03:52:16;3.97;;;2.20;;
78985;SDS011;68384;55.750;48.746;2023-07-20T03:53:20;6.95;;;2.45;;
78985;SDS011;68384;55.750;48.746;2023-07-20T03:54:24;4.78;;;2.40;;
78985;SDS011;68384;55.750;48.746;2023-07-20T03:55:27;4.95;;;2.60;;
78985;SDS011;68384;55.750;48.746;2023-07-20T03:56:31;4.05;;;2.47;;
78985;SDS011;68384;55.750;48.746;2023-07-20T03:57:37;6.18;;;2.47;;
78985;SDS011;68384;55.750;48.746;2023-07-20T03:58:41;7.78;;;2.83;;
78985;SDS011;68384;55.750;48.746;2023-07-20T03:59:44;4.85;;;2.40;;
78985;SDS011;68384;55.750;48.746;2023-07-20T04:00:49;3.30;;;2.38;;
78985;SDS011;68384;55.750;48.746;2023-07-20T04:01:53;3.67;;;2.50;;
78985;SDS011;68384;55.750;48.746;2023-07-20T04:02:57;4.45;;;2.50;;
78985;SDS011;68384;55.750;48.746;2023-07-20T04:04:01;5.03;;;2.15;;
78985;SDS011;68384;55.750;48.746;2023-07-20T04:05:05;12.00;;;2.97;;
78985;SDS011;68384;55.750;48.746;2023-07-20T04:06:08;4.20;;;2.33;;
78985;SDS011;68384;55.750;48.746;2023-07-20T04:07:12;7.00;;;2.50;;
78985;SDS011;68384;55.750;48.746;2023-07-20T04:08:17;4.63;;;3.03;;
78985;SDS011;68384;55.750;48.746;2023-07-20T04:09:22;4.20;;;2.60;;
78985;SDS011;68384;55.750;48.746;2023-07-20T04:10:25;7.00;;;2.60;;
78985;SDS011;68384;55.750;48.746;2023-07-20T04:11:29;5.10;;;2.70;;
78985;SDS011;68384;55.750;48.746;2023-07-20T04:12:32;3.20;;;2.10;;
78985;SDS011;68384;55.750;48.746;2023-07-20T04:13:35;5.00;;;2.40;;
78985;SDS011;68384;55.750;48.746;2023-07-20T04:14:38;4.05;;;2.20;;
78985;SDS011;68384;55.750;48.746;2023-07-20T04:15:42;2.88;;;2.20;;
78985;SDS011;68384;55.750;48.746;2023-07-20T04:16:46;4.35;;;2.33;;
78985;SDS011;68384;55.750;48.746;2023-07-20T04:17:50;6.18;;;2.72;;
78985;SDS011;68384;55.750;48.746;2023-07-20T04:18:54;3.80;;;2.40;;
78985;SDS011;68384;55.750;48.746;2023-07-20T04:19:58;5.25;;;3.22;;
78985;SDS011;68384;55.750;48.746;2023-07-20T04:21:01;2.90;;;2.20;;
78985;SDS011;68384;55.750;48.746;2023-07-20T04:22:06;3.63;;;2.33;;
78985;SDS011;68384;55.750;48.746;2023-07-20T04:23:08;5.40;;;2.38;;
78985;SDS011;68384;55.750;48.746;2023-07-20T04:24:12;5.68;;;2.05;;
78985;SDS011;68384;55.750;48.746;2023-07-20T04:25:17;7.25;;;2.30;;
78985;SDS011;68384;55.750;48.746;2023-07-20T04:26:22;4.60;;;2.28;;
78985;SDS011;68384;55.750;48.746;2023-07-20T04:27:25;4.07;;;2.38;;
78985;SDS011;68384;55.750;48.746;2023-07-20T04:28:29;4.70;;;2.20;;
78985;SDS011;68384;55.750;48.746;2023-07-20T04:29:33;2.88;;;2.15;;
78985;SDS011;68384;55.750;48.746;2023-07-20T04:30:37;6.15;;;2.10;;
78985;SDS011;68384;55.750;48.746;2023-07-20T04:31:42;3.50;;;2.17;;
78985;SDS011;68384;55.750;48.746;2023-07-20T04:32:45;4.22;;;2.10;;
78985;SDS011;68384;55.750;48.746;2023-07-20T04:33:49;4.05;;;2.35;;
78985;SDS011;68384;55.750;48.746;2023-07-20T04:34:53;4.40;;;2.08;;
78985;SDS011;68384;55.750;48.746;2023-07-20T04:35:56;4.10;;;2.50;;
78985;SDS011;68384;55.750;48.746;2023-07-20T04:37:08;2.72;;;2.03;;
78985;SDS011;68384;55.750;48.746;2023-07-20T04:38:11;6.32;;;2.35;;
78985;SDS011;68384;55.750;48.746;2023-07-20T04:39:15;4.45;;;2.15;;
78985;SDS011;68384;55.750;48.746;2023-07-20T04:40:36;6.68;;;2.53;;
78985;SDS011;68384;55.750;48.746;2023-07-20T04:41:40;5.93;;;2.60;;
78985;SDS011;68384;55.750;48.746;2023-07-20T04:42:43;3.22;;;2.38;;
78985;SDS011;68384;55.750;48.746;2023-07-20T04:43:47;3.80;;;2.30;;
78985;SDS011;68384;55.750;48.746;2023-07-20T04:44:57;5.22;;;2.00;;
78985;SDS011;68384;55.750;48.746;2023-07-20T04:46:01;2.45;;;1.98;;
78985;SDS011;68384;55.750;48.746;2023-07-20T04:47:07;5.38;;;2.25;;
78985;SDS011;68384;55.750;48.746;2023-07-20T04:48:13;4.22;;;2.15;;
78985;SDS011;68384;55.750;48.746;2023-07-20T04:49:26;4.25;;;2.10;;
78985;SDS011;68384;55.750;48.746;2023-07-20T04:50:30;3.17;;;2.30;;
78985;SDS011;68384;55.750;48.746;2023-07-20T04:51:33;8.45;;;2.30;;
78985;SDS011;68384;55.750;48.746;2023-07-20T04:52:37;3.75;;;2.20;;
78985;SDS011;68384;55.750;48.746;2023-07-20T04:53:48;3.47;;;2.25;;
78985;SDS011;68384;55.750;48.746;2023-07-20T04:54:52;2.40;;;1.90;;
78985;SDS011;68384;55.750;48.746;2023-07-20T04:55:57;4.80;;;2.08;;
78985;SDS011;68384;55.750;48.746;2023-07-20T04:57:01;4.07;;;2.30;;
78985;SDS011;68384;55.750;48.746;2023-07-20T04:58:04;4.70;;;2.10;;
78985;SDS011;68384;55.750;48.746;2023-07-20T04:59:10;5.22;;;2.53;;
78985;SDS011;68384;55.750;48.746;2023-07-20T05:00:14;3.72;;;1.92;;
78985;SDS011;68384;55.750;48.746;2023-07-20T05:01:19;2.88;;;1.90;;
78985;SDS011;68384;55.750;48.746;2023-07-20T05:02:22;3.75;;;2.10;;
78985;SDS011;68384;55.750;48.746;2023-07-20T05:03:26;3.83;;;2.00;;
78985;SDS011;68384;55.750;48.746;2023-07-20T05:04:29;5.72;;;2.50;;
78985;SDS011;68384;55.750;48.746;2023-07-20T05:05:40;5.50;;;2.20;;
78985;SDS011;68384;55.750;48.746;2023-07-20T05:06:44;3.25;;;1.67;;
78985;SDS011;68384;55.750;48.746;2023-07-20T05:07:48;3.65;;;1.90;;
78985;SDS011;68384;55.750;48.746;2023-07-20T05:08:51;4.32;;;1.90;;
78985;SDS011;68384;55.750;48.746;2023-07-20T05:09:55;2.88;;;1.90;;
78985;SDS011;68384;55.750;48.746;2023-07-20T05:11:01;3.00;;;2.15;;
78985;SDS011;68384;55.750;48.746;2023-07-20T05:12:05;7.18;;;1.70;;
78985;SDS011;68384;55.750;48.746;2023-07-20T05:13:09;3.25;;;2.00;;
78985;SDS011;68384;55.750;48.746;2023-07-20T05:14:13;3.58;;;1.88;;
78985;SDS011;68384;55.750;48.746;2023-07-20T05:15:16;5.32;;;2.03;;
78985;SDS011;68384;55.750;48.746;2023-07-20T05:16:20;4.55;;;2.25;;
78985;SDS011;68384;55.750;48.746;2023-07-20T05:17:24;6.65;;;1.90;;
78985;SDS011;68384;55.750;48.746;2023-07-20T05:18:28;3.35;;;1.88;;
78985;SDS011;68384;55.750;48.746;2023-07-20T05:19:31;7.07;;;1.90;;
78985;SDS011;68384;55.750;48.746;2023-07-20T05:20:35;3.30;;;1.90;;
78985;SDS011;68384;55.750;48.746;2023-07-20T05:21:39;2.40;;;1.70;;
78985;SDS011;68384;55.750;48.746;2023-07-20T05:22:43;8.82;;;2.70;;
78985;SDS011;68384;55.750;48.746;2023-07-20T05:23:46;4.75;;;2.10;;
78985;SDS011;68384;55.750;48.746;2023-07-20T05:24:50;3.97;;;1.85;;
78985;SDS011;68384;55.750;48.746;2023-07-20T05:25:56;8.18;;;2.05;;
78985;SDS011;68384;55.750;48.746;2023-07-20T05:27:01;5.18;;;2.00;;
78985;SDS011;68384;55.750;48.746;2023-07-20T05:28:05;5.28;;;2.15;;
78985;SDS011;68384;55.750;48.746;2023-07-20T05:29:09;5.93;;;2.67;;
78985;SDS011;68384;55.750;48.746;2023-07-20T05:30:12;5.47;;;2.03;;
78985;SDS011;68384;55.750;48.746;2023-07-20T05:31:16;6.35;;;2.00;;
78985;SDS011;68384;55.750;48.746;2023-07-20T05:32:19;4.22;;;2.10;;
78985;SDS011;68384;55.750;48.746;2023-07-20T05:33:23;3.22;;;1.95;;
78985;SDS011;68384;55.750;48.746;2023-07-20T05:34:26;4.05;;;1.90;;
78985;SDS011;68384;55.750;48.746;2023-07-20T05:35:30;3.58;;;2.20;;
78985;SDS011;68384;55.750;48.746;2023-07-20T05:36:32;3.65;;;1.80;;
78985;SDS011;68384;55.750;48.746;2023-07-20T05:37:36;4.28;;;2.20;;
78985;SDS011;68384;55.750;48.746;2023-07-20T05:38:40;3.38;;;1.80;;
78985;SDS011;68384;55.750;48.746;2023-07-20T05:39:44;6.05;;;1.60;;
78985;SDS011;68384;55.750;48.746;2023-07-20T05:40:47;9.07;;;2.35;;
78985;SDS011;68384;55.750;48.746;2023-07-20T05:41:51;4.38;;;1.70;;
78985;SDS011;68384;55.750;48.746;2023-07-20T05:42:55;2.47;;;1.60;;
78985;SDS011;68384;55.750;48.746;2023-07-20T05:43:59;5.28;;;2.03;;
78985;SDS011;68384;55.750;48.746;2023-07-20T05:45:02;6.00;;;2.33;;
78985;SDS011;68384;55.750;48.746;2023-07-20T05:46:06;4.80;;;2.20;;
78985;SDS011;68384;55.750;48.746;2023-07-20T05:47:09;8.43;;;1.73;;
78985;SDS011;68384;55.750;48.746;2023-07-20T05:48:14;4.57;;;1.77;;
78985;SDS011;68384;55.750;48.746;2023-07-20T05:49:18;4.50;;;1.70;;
78985;SDS011;68384;55.750;48.746;2023-07-20T05:50:22;5.32;;;1.90;;
78985;SDS011;68384;55.750;48.746;2023-07-20T05:51:25;3.35;;;2.05;;
78985;SDS011;68384;55.750;48.746;2023-07-20T05:52:29;6.38;;;2.28;;
78985;SDS011;68384;55.750;48.746;2023-07-20T05:53:32;4.30;;;1.80;;
78985;SDS011;68384;55.750;48.746;2023-07-20T05:54:36;4.22;;;1.90;;
78985;SDS011;68384;55.750;48.746;2023-07-20T05:55:39;6.90;;;2.10;;
78985;SDS011;68384;55.750;48.746;2023-07-20T05:56:43;3.67;;;1.77;;
78985;SDS011;68384;55.750;48.746;2023-07-20T05:57:46;8.32;;;2.17;;
78985;SDS011;68384;55.750;48.746;2023-07-20T05:58:51;12.63;;;2.20;;
78985;SDS011;68384;55.750;48.746;2023-07-20T05:59:55;11.20;;;2.13;;
78985;SDS011;68384;55.750;48.746;2023-07-20T06:00:59;3.03;;;1.70;;
78985;SDS011;68384;55.750;48.746;2023-07-20T06:02:02;4.43;;;1.80;;
78985;SDS011;68384;55.750;48.746;2023-07-20T06:03:06;3.55;;;1.80;;
78985;SDS011;68384;55.750;48.746;2023-07-20T06:04:09;2.75;;;1.80;;
78985;SDS011;68384;55.750;48.746;2023-07-20T06:05:12;2.55;;;1.80;;
78985;SDS011;68384;55.750;48.746;2023-07-20T06:06:15;5.50;;;2.00;;
78985;SDS011;68384;55.750;48.746;2023-07-20T06:07:19;5.13;;;2.00;;
78985;SDS011;68384;55.750;48.746;2023-07-20T06:08:22;7.43;;;1.73;;
78985;SDS011;68384;55.750;48.746;2023-07-20T06:09:26;3.72;;;2.08;;
78985;SDS011;68384;55.750;48.746;2023-07-20T06:10:29;4.65;;;1.77;;
78985;SDS011;68384;55.750;48.746;2023-07-20T06:11:33;3.83;;;1.95;;
78985;SDS011;68384;55.750;48.746;2023-07-20T06:12:36;4.05;;;1.67;;
78985;SDS011;68384;55.750;48.746;2023-07-20T06:13:40;5.57;;;1.85;;
78985;SDS011;68384;55.750;48.746;2023-07-20T06:14:44;8.02;;;2.10;;
78985;SDS011;68384;55.750;48.746;2023-07-20T06:15:48;4.25;;;1.83;;
78985;SDS011;68384;55.750;48.746;2023-07-20T06:16:52;4.07;;;1.90;;
78985;SDS011;68384;55.750;48.746;2023-07-20T06:17:55;4.45;;;1.70;;
78985;SDS011;68384;55.750;48.746;2023-07-20T06:19:00;4.88;;;2.08;;
78985;SDS011;68384;55.750;48.746;2023-07-20T06:20:04;4.93;;;1.88;;
78985;SDS011;68384;55.750;48.746;2023-07-20T06:21:09;5.10;;;1.98;;
78985;SDS011;68384;55.750;48.746;2023-07-20T06:22:13;4.20;;;1.90;;
78985;SDS011;68384;55.750;48.746;2023-07-20T06:23:16;5.80;;;2.00;;
78985;SDS011;68384;55.750;48.746;2023-07-20T06:24:20;3.22;;;2.00;;
78985;SDS011;68384;55.750;48.746;2023-07-20T06:25:23;3.10;;;1.77;;
78985;SDS011;68384;55.750;48.746;2023-07-20T06:26:26;3.85;;;2.00;;